Time;durP1;ratioP1;P1;durP2;ratioP2;P2;SDS_P1;SDS_P2;PMS_P1;PMS_P2;Temp;Humidity;BMP_temperature;BMP_pressure;BME280_temperature;BME280_humidity;BME280_pressure;Samples;Min_cycle;Max_cycle;Signal;HPM_P1;HPM_P2
2022/03/21 00:00:36;;;;;;;9.27;3.00;;;;;;;4.08;47.92;101107.59;5020610;28;20045;-76
2022/03/21 00:03:02;;;;;;;9.43;3.50;;;;;;;4.13;47.41;101107.81;5035435;28;20056;-76
2022/03/21 00:05:31;;;;;;;8.98;3.50;;;;;;;3.97;47.84;101080.53;5036102;28;20550;-78
2022/03/21 00:07:57;;;;;;;8.50;3.38;;;;;;;3.98;48.11;101082.28;5019293;28;20133;-76
2022/03/21 00:10:23;;;;;;;8.30;3.33;;;;;;;4.24;47.50;101116.84;5035090;28;20073;-75
2022/03/21 00:12:51;;;;;;;8.70;3.38;;;;;;;4.13;47.22;101090.72;5038886;28;20373;-78
2022/03/21 00:15:18;;;;;;;10.38;3.40;;;;;;;3.95;47.50;101067.66;5022528;28;20039;-74
2022/03/21 00:17:44;;;;;;;8.88;2.90;;;;;;;3.93;47.85;101083.78;5018540;28;20037;-76
2022/03/21 00:20:11;;;;;;;8.73;3.15;;;;;;;3.80;48.30;101085.81;5034989;28;20052;-77
2022/03/21 00:22:37;;;;;;;7.90;3.50;;;;;;;3.75;48.26;101083.81;5019302;28;20045;-77
2022/03/21 00:25:05;;;;;;;8.68;3.40;;;;;;;3.76;48.86;101095.88;5035411;28;20064;-76
2022/03/21 00:27:32;;;;;;;10.85;3.17;;;;;;;3.79;48.16;101085.72;5033175;28;20387;-76
2022/03/21 00:29:59;;;;;;;8.50;3.05;;;;;;;3.99;47.75;101084.06;5024899;28;20068;-75
2022/03/21 00:32:25;;;;;;;7.85;3.40;;;;;;;4.02;48.02;101095.34;5027642;28;20397;-77
2022/03/21 00:34:51;;;;;;;7.05;3.10;;;;;;;4.02;47.73;101082.50;5036574;28;20116;-76
2022/03/21 00:37:16;;;;;;;8.68;3.67;;;;;;;4.08;47.43;101115.31;5035018;28;20044;-76
2022/03/21 00:39:42;;;;;;;7.18;3.13;;;;;;;3.72;48.19;101076.00;5050619;28;20427;-76
2022/03/21 00:42:10;;;;;;;9.73;3.03;;;;;;;3.77;48.54;101105.31;5038027;28;20037;-77
2022/03/21 00:44:37;;;;;;;7.78;3.28;;;;;;;3.61;48.98;101090.00;5018989;28;20045;-75
2022/03/21 00:47:03;;;;;;;7.18;3.10;;;;;;;3.64;49.29;101110.69;5035651;28;20029;-77
2022/03/21 00:49:29;;;;;;;8.68;3.30;;;;;;;3.73;49.13;101118.81;5025833;28;20056;-76
2022/03/21 00:51:55;;;;;;;6.78;2.72;;;;;;;3.47;49.45;101090.22;5034909;28;20395;-76
2022/03/21 00:54:21;;;;;;;9.15;3.60;;;;;;;3.66;49.91;101129.59;5053840;28;20041;-77
2022/03/21 00:56:46;;;;;;;10.88;3.38;;;;;;;3.63;49.73;101126.91;5054528;28;20533;-76
2022/03/21 00:59:12;;;;;;;11.00;3.60;;;;;;;3.79;49.90;101139.63;5034760;28;20044;-76
2022/03/21 01:01:38;;;;;;;7.95;3.30;;;;;;;3.58;49.73;101101.00;5054369;28;20434;-75
2022/03/21 01:04:04;;;;;;;7.97;3.28;;;;;;;3.78;49.50;101130.16;5054091;28;20053;-77
2022/03/21 01:06:29;;;;;;;8.98;2.97;;;;;;;3.39;50.47;101109.53;5055618;28;20084;-76
2022/03/21 01:08:56;;;;;;;5.03;3.00;;;;;;;3.37;50.71;101094.84;5034025;28;20539;-75
2022/03/21 01:11:24;;;;;;;10.98;3.22;;;;;;;3.58;49.75;101084.75;5028644;28;20036;-76
2022/03/21 01:13:50;;;;;;;6.50;2.70;;;;;;;3.71;49.23;101077.69;5036689;28;20504;-77
2022/03/21 01:16:16;;;;;;;8.10;2.88;;;;;;;4.01;49.20;101119.25;5020815;28;20053;-77
2022/03/21 01:18:45;;;;;;;9.15;3.22;;;;;;;3.88;48.73;101096.41;5036848;28;20049;-75
2022/03/21 01:21:11;;;;;;;9.10;3.03;;;;;;;3.80;49.88;101120.84;5017641;28;20403;-75
2022/03/21 01:23:37;;;;;;;6.32;2.50;;;;;;;3.87;49.60;101115.19;5026915;28;20037;-76
2022/03/21 01:26:02;;;;;;;8.07;3.15;;;;;;;3.61;50.09;101118.22;5017826;28;20082;-75
2022/03/21 01:28:28;;;;;;;8.00;3.42;;;;;;;3.37;51.22;101121.38;5049073;28;20057;-76
2022/03/21 01:30:54;;;;;;;9.10;3.28;;;;;;;2.97;51.64;101073.28;5049637;28;20037;-76
2022/03/21 01:33:20;;;;;;;10.38;3.42;;;;;;;3.14;52.42;101117.72;5003968;28;20036;-77
2022/03/21 01:35:45;;;;;;;11.95;4.40;;;;;;;2.77;52.52;101080.00;5033788;28;20582;-77
2022/03/21 01:38:11;;;;;;;9.45;3.55;;;;;;;2.83;53.17;101102.47;5034902;28;20037;-78
2022/03/21 01:40:37;;;;;;;11.55;3.80;;;;;;;2.85;53.50;101107.72;5033661;28;20041;-75
2022/03/21 01:43:09;;;;;;;12.18;3.55;;;;;;;2.78;53.30;101103.94;5033076;28;20047;-76
2022/03/21 01:45:34;;;;;;;7.00;3.42;;;;;;;2.71;53.62;101112.16;5050009;28;20623;-75
2022/03/21 01:48:00;;;;;;;9.45;3.83;;;;;;;2.73;53.62;101118.22;5028137;28;20120;-76
2022/03/21 01:50:26;;;;;;;10.88;3.60;;;;;;;2.45;54.41;101083.50;5035857;28;20041;-76
2022/03/21 01:55:43;;;;;;;14.55;3.90;;;;;;;2.69;54.04;101121.41;5016891;28;20044;-75
2022/03/21 01:55:43;;;;;;;12.52;3.65;;;;;;;2.73;54.98;101113.09;5047113;28;20412;-76
2022/03/21 01:58:09;;;;;;;8.85;3.67;;;;;;;2.76;54.18;101119.25;5044976;28;20041;-77
2022/03/21 02:00:35;;;;;;;9.70;3.65;;;;;;;2.67;54.92;101121.34;5036321;28;20033;-76
2022/03/21 02:03:01;;;;;;;9.02;3.85;;;;;;;2.44;55.56;101092.00;5048816;28;20049;-77
2022/03/21 02:05:31;;;;;;;13.10;3.50;;;;;;;2.72;54.72;101095.97;5051060;28;20041;-76
2022/03/21 02:07:57;;;;;;;12.30;3.70;;;;;;;2.81;54.43;101098.97;5026532;28;20041;-76
2022/03/21 02:10:23;;;;;;;9.35;3.58;;;;;;;2.66;54.58;101081.16;5032272;28;20096;-75
2022/03/21 02:12:48;;;;;;;11.60;3.25;;;;;;;2.71;55.32;101119.81;5030111;28;20049;-76
2022/03/21 02:15:14;;;;;;;8.75;3.30;;;;;;;2.76;55.46;101103.00;5029085;28;20365;-75
2022/03/21 02:17:41;;;;;;;11.10;3.92;;;;;;;2.87;54.68;101117.22;5053202;28;20411;-76
2022/03/21 02:20:07;;;;;;;9.07;3.60;;;;;;;2.84;55.55;101118.75;5036648;28;20065;-75
2022/03/21 02:22:38;;;;;;;8.45;3.60;;;;;;;2.79;55.87;101108.25;5053156;28;20451;-76
2022/03/21 02:25:22;;;;;;;9.27;3.25;;;;;;;2.92;55.76;101110.63;5052609;28;20091;-75
2022/03/21 02:27:47;;;;;;;10.55;3.92;;;;;;;2.85;55.57;101102.59;5035971;28;20136;-76
2022/03/21 02:30:14;;;;;;;10.23;3.60;;;;;;;2.87;55.31;101099.28;5052737;28;20041;-75
2022/03/21 02:32:40;;;;;;;11.07;3.70;;;;;;;2.60;55.94;101079.97;5052911;28;20041;-76
2022/03/21 02:35:05;;;;;;;9.95;3.42;;;;;;;2.69;56.47;101106.03;5015918;28;20029;-76
2022/03/21 02:37:31;;;;;;;11.45;4.35;;;;;;;2.43;56.72;101087.69;5047078;28;20478;-75
2022/03/21 02:39:57;;;;;;;9.02;3.90;;;;;;;2.40;57.11;101081.50;5032847;28;20044;-77
2022/03/21 02:42:23;;;;;;;9.50;3.47;;;;;;;2.45;56.42;101074.94;5045212;28;20041;-76
2022/03/21 02:44:49;;;;;;;11.20;3.97;;;;;;;2.73;57.02;101124.22;5015962;28;20029;-75
2022/03/21 02:47:14;;;;;;;8.25;3.30;;;;;;;2.86;56.55;101104.34;5044018;28;20510;-76
2022/03/21 02:49:40;;;;;;;18.30;3.47;;;;;;;3.18;55.78;101119.63;5035937;28;20044;-76
2022/03/21 02:52:06;;;;;;;13.32;4.50;;;;;;;3.17;55.33;101119.56;5052271;28;20044;-75
2022/03/21 02:54:33;;;;;;;8.65;3.50;;;;;;;3.17;55.73;101104.16;5053797;28;20479;-77
2022/03/21 02:56:58;;;;;;;12.40;3.78;;;;;;;3.39;54.72;101114.66;5035638;28;20049;-77
2022/03/21 02:59:24;;;;;;;8.07;3.47;;;;;;;3.18;55.10;101083.72;5053181;28;20025;-77
2022/03/21 03:01:53;;;;;;;;;;;;;;;3.27;55.00;101109.81;5020817;28;20136;-77
2022/03/21 03:04:21;;;;;;;10.20;3.35;;;;;;;2.99;55.64;101107.59;5052909;28;20249;-76
2022/03/21 03:06:47;;;;;;;9.75;3.45;;;;;;;3.10;56.31;101117.47;5015944;28;20504;-76
2022/03/21 03:09:13;;;;;;;10.18;3.67;;;;;;;3.05;56.13;101097.63;5033968;28;20171;-77
2022/03/21 03:11:39;;;;;;;13.48;3.92;;;;;;;3.21;55.36;101083.00;5019043;28;20476;-78
2022/03/21 03:14:05;;;;;;;8.23;3.30;;;;;;;3.37;55.05;101095.72;5033675;28;20037;-76
2022/03/21 03:16:31;;;;;;;;;;;;;;;3.67;54.05;101113.41;5019453;28;20547;-75
2022/03/21 03:18:56;;;;;;;9.45;3.08;;;;;;;3.51;53.85;101084.44;5016311;28;19982;-76
2022/03/21 03:21:26;;;;;;;11.27;3.75;;;;;;;3.52;54.25;101100.72;5016806;28;20041;-76
2022/03/21 03:23:52;;;;;;;9.57;3.22;;;;;;;3.45;54.53;101102.13;5027082;28;20090;-78
2022/03/21 03:26:18;;;;;;;10.13;3.50;;;;;;;3.61;54.23;101116.53;5019644;28;20128;-74
2022/03/21 03:28:47;;;;;;;11.65;3.25;;;;;;;3.70;53.83;101093.88;5015724;28;20087;-77
2022/03/21 03:31:13;;;;;;;11.35;3.50;;;;;;;3.94;53.64;101122.38;5008179;28;20044;-77
2022/03/21 03:33:39;;;;;;;7.18;3.30;;;;;;;3.81;53.35;101090.13;5052051;28;20033;-77
2022/03/21 03:36:05;;;;;;;12.60;3.22;;;;;;;3.88;53.26;101101.53;5018406;28;20068;-76
2022/03/21 03:38:30;;;;;;;11.15;3.47;;;;;;;3.86;52.91;101087.78;5051343;28;20094;-74
2022/03/21 03:40:57;;;;;;;9.35;3.70;;;;;;;3.91;53.24;101126.50;5027573;28;20042;-75
2022/03/21 03:43:23;;;;;;;10.38;3.55;;;;;;;3.61;53.74;101084.88;5046416;28;20052;-74
2022/03/21 03:45:52;;;;;;;11.25;4.00;;;;;;;3.77;52.72;101098.50;5034747;28;20107;-76
2022/03/21 03:48:20;;;;;;;13.57;4.18;;;;;;;3.62;53.60;101091.75;5038818;28;20407;-78
2022/03/21 03:50:46;;;;;;;9.77;3.92;;;;;;;3.58;53.75;101112.97;5038238;28;20048;-73
2022/03/21 03:53:12;;;;;;;;;;;;;;;3.49;54.81;101126.25;5029953;28;20029;-75
2022/03/21 03:55:38;;;;;;;11.45;3.83;;;;;;;3.28;55.34;101115.81;5056400;28;20402;-73
2022/03/21 03:58:03;;;;;;;14.20;4.70;;;;;;;2.96;55.54;101070.66;5055175;28;20041;-75
2022/03/21 04:00:29;;;;;;;11.57;4.38;;;;;;;3.16;55.32;101118.69;5035070;28;20515;-78
2022/03/21 04:05:39;;;;;;;12.45;4.70;;;;;;;3.05;55.74;101124.94;5041244;28;20045;-76
2022/03/21 04:08:05;;;;;;;14.18;4.65;;;;;;;2.87;56.50;101100.97;5038647;28;20032;-78
2022/03/21 04:10:31;;;;;;;10.93;4.65;;;;;;;2.94;56.88;101123.53;5035432;28;20480;-77
2022/03/21 04:12:56;;;;;;;9.98;4.35;;;;;;;2.78;56.79;101112.50;5034610;28;20060;-77
2022/03/21 04:15:22;;;;;;;14.10;5.28;;;;;;;2.55;57.76;101083.16;5038321;28;20091;-76
2022/03/21 04:17:48;;;;;;;12.07;4.75;;;;;;;2.66;57.44;101096.53;5021630;28;20041;-75
2022/03/21 04:20:14;;;;;;;15.88;4.78;;;;;;;2.64;57.79;101094.69;5021862;28;20369;-78
2022/03/21 04:22:40;;;;;;;13.75;4.68;;;;;;;2.86;57.91;101125.72;5021552;28;20131;-76
2022/03/21 04:25:07;;;;;;;11.52;4.80;;;;;;;2.77;57.73;101094.50;5022377;28;20037;-77
2022/03/21 04:27:33;;;;;;;12.48;4.75;;;;;;;2.85;57.80;101106.03;5055139;28;20078;-75
2022/03/21 04:29:59;;;;;;;;;;;;;;;3.27;55.88;101126.88;5055473;28;20087;-75
2022/03/21 04:32:25;;;;;;;16.38;4.90;;;;;;;2.99;56.35;101089.63;5022010;28;19919;-75
2022/03/21 04:34:51;;;;;;;11.38;5.43;;;;;;;3.33;56.08;101131.44;5022259;28;20037;-77
2022/03/21 04:37:17;;;;;;;13.52;4.80;;;;;;;3.18;56.23;101105.91;5056196;28;20052;-76
2022/03/21 04:39:43;;;;;;;12.82;5.15;;;;;;;3.06;57.15;101114.75;5055004;28;20119;-77
2022/03/21 04:42:08;;;;;;;15.52;5.90;;;;;;;3.27;56.66;101137.13;5005721;28;20037;-76
2022/03/21 04:44:34;;;;;;;15.13;5.18;;;;;;;3.40;56.27;101128.38;5054744;28;20494;-78
2022/03/21 04:47:00;;;;;;;20.08;5.43;;;;;;;3.15;56.28;101082.69;5056705;28;20131;-77
2022/03/21 04:49:25;;;;;;;15.07;5.18;;;;;;;3.23;56.45;101107.03;5038776;28;20040;-76
2022/03/21 04:51:51;;;;;;;17.02;4.85;;;;;;;3.28;56.98;101097.84;5038829;28;20044;-75
2022/03/21 04:54:18;;;;;;;11.55;4.93;;;;;;;3.29;57.00;101099.63;5028197;28;20033;-78
2022/03/21 04:56:44;;;;;;;10.52;4.60;;;;;;;3.65;56.09;101117.56;5036497;28;20041;-76
2022/03/21 04:59:09;;;;;;;10.38;4.47;;;;;;;3.61;55.80;101093.44;5053995;28;20397;-75
2022/03/21 05:01:36;;;;;;;14.73;4.40;;;;;;;3.67;55.69;101104.00;5056812;28;20086;-76
2022/03/21 05:04:02;;;;;;;13.75;4.20;;;;;;;3.80;55.72;101128.53;5029671;28;20053;-76
2022/03/21 05:06:28;;;;;;;12.55;4.45;;;;;;;3.63;55.91;101098.66;5033012;28;20485;-76
2022/03/21 05:08:54;;;;;;;13.63;4.63;;;;;;;3.77;56.27;101125.84;5038179;28;20076;-75
2022/03/21 05:11:20;;;;;;;11.38;4.68;;;;;;;3.52;56.68;101100.72;5055186;28;20071;-76
2022/03/21 05:13:47;;;;;;;11.05;4.38;;;;;;;3.43;56.33;101072.06;5038164;28;20045;-76
2022/03/21 05:16:13;;;;;;;14.55;4.15;;;;;;;3.80;56.23;101128.53;5055532;28;20159;-74
2022/03/21 05:18:39;;;;;;;10.65;4.43;;;;;;;3.83;56.66;101139.84;5054610;28;20040;-78
2022/03/21 05:21:05;;;;;;;12.38;4.22;;;;;;;3.63;56.76;101111.50;5040798;28;20029;-79
2022/03/21 05:31:44;;;;;;;11.35;3.30;;;;;;;4.53;54.07;101106.16;5057655;28;20140;-78
2022/03/21 05:36:54;;;;;;;9.57;3.97;;;;;;;4.72;53.16;101112.09;5035251;28;20057;-75
2022/03/21 05:39:21;;;;;;;11.75;4.10;;;;;;;4.39;54.03;101101.25;5019812;28;20036;-75
2022/03/21 05:41:48;;;;;;;15.05;4.80;;;;;;;4.42;54.06;101135.66;5038946;28;20553;-76
2022/03/21 05:44:14;;;;;;;13.23;4.95;;;;;;;4.00;54.51;101112.38;5054703;28;20039;-76
2022/03/21 05:46:39;;;;;;;12.63;5.32;;;;;;;3.51;55.47;101112.66;5037764;28;20102;-75
2022/03/21 05:49:05;;;;;;;10.88;5.07;;;;;;;2.96;57.92;101096.28;5034195;28;20037;-76
2022/03/21 05:51:32;;;;;;;13.75;5.50;;;;;;;2.82;59.02;101107.53;5046198;28;20040;-79
2022/03/21 05:53:59;;;;;;;11.85;4.65;;;;;;;2.69;60.25;101100.91;5037622;28;20039;-75
2022/03/21 05:56:25;;;;;;;14.45;4.65;;;;;;;2.84;59.68;101118.75;5054190;28;20040;-76
2022/03/21 05:58:52;;;;;;;12.27;4.22;;;;;;;2.67;60.45;101094.84;5017574;28;20044;-76
2022/03/21 06:01:21;;;;;;;12.52;5.28;;;;;;;2.78;60.27;101096.25;5054293;28;20427;-76
2022/03/21 06:03:48;;;;;;;12.65;4.55;;;;;;;2.83;60.39;101106.72;5055181;28;20077;-75
2022/03/21 06:06:15;;;;;;;15.30;4.63;;;;;;;2.84;60.89;101117.09;5038832;28;20040;-75
2022/03/21 06:08:41;;;;;;;16.05;5.00;;;;;;;2.67;60.80;101098.28;5036838;28;20031;-76
2022/03/21 06:11:08;;;;;;;14.35;4.50;;;;;;;2.77;60.75;101095.38;5053468;28;20116;-77
2022/03/21 06:13:35;;;;;;;11.88;4.30;;;;;;;2.94;60.53;101118.41;5033844;28;20056;-76
2022/03/21 06:16:03;;;;;;;13.70;4.22;;;;;;;2.72;61.08;101080.59;5044319;28;20361;-77
2022/03/21 06:18:29;;;;;;;19.40;4.95;;;;;;;2.83;61.32;101099.91;5036999;28;20033;-76
2022/03/21 06:20:55;;;;;;;15.98;4.80;;;;;;;2.67;61.44;101071.78;5017611;28;20521;-76
2022/03/21 06:23:21;;;;;;;15.50;5.38;;;;;;;2.92;61.19;101097.81;5016168;28;20060;-77
2022/03/21 06:25:47;;;;;;;12.65;4.88;;;;;;;2.99;60.86;101078.50;5034723;28;20071;-76
2022/03/21 06:28:12;;;;;;;10.38;3.97;;;;;;;3.03;60.42;101078.72;5012564;28;20028;-76
2022/03/21 06:30:38;;;;;;;16.05;4.45;;;;;;;3.00;59.99;101068.31;5053709;28;20079;-79
2022/03/21 06:33:04;;;;;;;16.05;4.68;;;;;;;3.16;60.40;101094.69;5034267;28;20033;-74
2022/03/21 06:35:30;;;;;;;18.75;4.28;;;;;;;3.29;59.84;101107.31;5048315;28;20033;-77
2022/03/21 06:37:55;;;;;;;13.23;4.82;;;;;;;3.33;60.38;101119.47;5053690;28;20037;-77
2022/03/21 06:40:23;;;;;;;19.08;4.72;;;;;;;3.24;59.91;101091.69;5033095;28;20509;-75
2022/03/21 06:42:49;;;;;;;13.27;4.25;;;;;;;3.26;60.37;101100.38;5019021;28;20048;-77
2022/03/21 06:45:15;;;;;;;13.20;3.92;;;;;;;3.27;59.99;101093.53;5053699;28;20037;-77
2022/03/21 06:47:41;;;;;;;11.00;3.97;;;;;;;3.27;60.04;101094.41;5033926;28;20040;-81
2022/03/21 06:50:07;;;;;;;14.20;4.15;;;;;;;3.32;60.83;101107.47;5055870;28;20044;-77
2022/03/21 06:52:35;;;;;;;;;;;;;;;3.43;60.67;101129.38;5024096;28;20048;-79
2022/03/21 06:55:01;;;;;;;13.05;4.10;;;;;;;3.21;60.68;101086.44;5054142;28;19921;-77
2022/03/21 06:57:27;;;;;;;16.35;4.55;;;;;;;3.38;60.53;101112.88;5052643;28;20044;-77
2022/03/21 06:59:53;;;;;;;14.50;3.53;;;;;;;3.46;60.99;101120.94;5052490;28;20095;-76
2022/03/21 07:02:19;;;;;;;13.75;4.35;;;;;;;3.23;60.61;101081.38;5052673;28;20037;-76
2022/03/21 07:04:45;;;;;;;;;;;;;;;3.54;61.05;101120.50;5036536;28;20048;-76
2022/03/21 07:07:11;;;;;;;13.50;4.10;;;;;;;3.52;60.87;101111.84;5054116;28;20007;-75
2022/03/21 07:09:36;;;;;;;11.50;4.05;;;;;;;3.44;60.94;101091.78;5037897;28;20040;-77
2022/03/21 07:12:03;;;;;;;14.23;4.03;;;;;;;3.71;60.68;101125.53;5053785;28;20476;-77
2022/03/21 07:14:29;;;;;;;19.50;4.47;;;;;;;3.76;60.84;101122.41;5036802;28;20033;-76
2022/03/21 07:16:54;;;;;;;16.75;4.40;;;;;;;3.89;60.34;101123.84;5053489;28;20044;-75
2022/03/21 07:19:20;;;;;;;20.30;5.13;;;;;;;3.96;60.00;101101.91;5053508;28;20037;-77
2022/03/21 07:21:46;;;;;;;15.15;4.28;;;;;;;4.15;59.91;101116.44;5040168;28;20530;-75
2022/03/21 07:24:13;;;;;;;12.40;3.70;;;;;;;4.17;59.60;101086.56;5040886;28;20037;-76
2022/03/21 07:26:39;;;;;;;15.80;4.53;;;;;;;4.24;58.96;101075.75;5039730;28;20041;-76
2022/03/21 07:29:05;;;;;;;16.33;4.55;;;;;;;4.31;58.52;101067.53;5058685;28;20044;-77
2022/03/21 07:31:31;;;;;;;16.23;4.22;;;;;;;4.52;58.84;101085.53;5057353;28;20036;-76
2022/03/21 07:33:57;;;;;;;20.33;4.40;;;;;;;4.65;57.89;101081.81;5059431;28;20036;-77
2022/03/21 07:36:22;;;;;;;11.00;4.03;;;;;;;4.97;57.81;101096.88;5034577;28;20032;-76
2022/03/21 07:38:48;;;;;;;12.77;3.92;;;;;;;5.17;57.02;101092.56;5058273;28;20060;-77
2022/03/21 07:41:14;;;;;;;10.40;3.83;;;;;;;5.76;55.91;101116.31;5040510;28;20029;-78
2022/03/21 07:43:39;;;;;;;15.13;3.75;;;;;;;6.18;55.01;101121.38;5020636;28;20041;-76
2022/03/21 07:48:53;;;;;;;14.30;2.70;;;;;;;6.82;53.01;101123.66;5046500;28;20037;-76
2022/03/21 07:51:18;;;;;;;10.02;2.90;;;;;;;7.07;52.30;101090.13;5056922;28;20040;-77
2022/03/21 07:53:44;;;;;;;13.02;3.33;;;;;;;7.42;51.36;101082.63;5019208;28;20037;-77
2022/03/21 07:56:10;;;;;;;10.02;3.13;;;;;;;7.91;50.25;101099.63;5038851;28;20063;-78
2022/03/21 07:58:36;;;;;;;9.65;3.05;;;;;;;8.13;49.66;101091.69;5055654;28;20074;-78
2022/03/21 08:01:03;;;;;;;11.15;2.95;;;;;;;8.48;48.48;101083.19;5039714;28;20041;-76
2022/03/21 08:03:28;;;;;;;8.98;3.15;;;;;;;8.72;47.78;101072.63;5055397;28;20064;-77
2022/03/21 08:05:59;;;;;;;10.85;2.50;;;;;;;8.82;47.18;101072.00;5039313;28;20086;-77
2022/03/21 08:08:26;;;;;;;10.82;2.88;;;;;;;9.00;47.01;101074.19;5040066;28;20135;-76
2022/03/21 08:10:52;;;;;;;7.68;2.67;;;;;;;9.37;46.41;101096.66;5056786;28;20041;-76
2022/03/21 08:13:19;;;;;;;8.95;2.67;;;;;;;9.44;45.66;101085.63;5038907;28;20465;-76
2022/03/21 08:15:48;;;;;;;9.95;2.50;;;;;;;9.71;45.63;101095.72;5022188;28;20051;-76
2022/03/21 08:18:15;;;;;;;9.93;3.15;;;;;;;9.59;45.24;101088.56;5039267;28;20527;-77
2022/03/21 08:20:43;;;;;;;7.95;2.75;;;;;;;9.34;45.56;101060.31;5038752;28;20029;-77
2022/03/21 08:23:13;;;;;;;13.57;2.88;;;;;;;9.25;45.39;101057.53;5039428;28;20495;-78
2022/03/21 08:25:40;;;;;;;8.50;2.55;;;;;;;9.56;44.66;101033.19;5056674;28;20108;-77
2022/03/21 08:28:06;;;;;;;13.65;3.05;;;;;;;9.87;43.95;101053.75;5055389;28;20031;-77
2022/03/21 08:30:34;;;;;;;7.93;2.70;;;;;;;10.08;43.84;101050.75;5054884;28;20419;-78
2022/03/21 08:33:01;;;;;;;8.70;2.97;;;;;;;10.38;42.87;101065.16;5022319;28;20041;-77
2022/03/21 08:35:27;;;;;;;11.55;2.80;;;;;;;10.41;43.28;101063.50;5038915;28;20408;-77
2022/03/21 08:37:53;;;;;;;10.18;2.70;;;;;;;10.48;42.97;101051.50;5036691;28;20042;-76
2022/03/21 08:40:18;;;;;;;8.73;2.63;;;;;;;10.63;41.53;101048.34;5038304;28;20044;-77
2022/03/21 08:42:45;;;;;;;13.10;2.80;;;;;;;10.48;41.80;101048.91;5054723;28;20068;-77
2022/03/21 08:45:12;;;;;;;11.13;2.50;;;;;;;10.31;42.30;101029.56;5055908;28;20358;-78
2022/03/21 08:47:38;;;;;;;7.18;2.40;;;;;;;10.11;42.01;101011.88;5055027;28;20609;-79
2022/03/21 08:50:05;;;;;;;10.40;2.58;;;;;;;10.08;42.66;101026.50;5038345;28;20071;-80
2022/03/21 08:52:30;;;;;;;12.07;2.72;;;;;;;10.02;42.49;101008.25;5021579;28;20399;-79
2022/03/21 08:54:56;;;;;;;14.98;3.45;;;;;;;10.24;42.90;101038.06;5022437;28;20033;-78
2022/03/21 08:57:22;;;;;;;7.50;2.60;;;;;;;10.03;42.43;101016.03;5038326;28;20041;-77
2022/03/21 08:59:48;;;;;;;;;;;;;;;10.37;42.22;101050.47;5055072;28;20055;-76
2022/03/21 09:02:15;;;;;;;13.70;2.90;;;;;;;10.38;42.01;101021.06;5038695;28;20004;-77
2022/03/21 09:04:41;;;;;;;9.35;2.60;;;;;;;10.47;41.88;101039.41;5038140;28;20078;-77
2022/03/21 09:07:09;;;;;;;9.82;2.70;;;;;;;10.38;41.56;101015.88;5038477;28;20048;-78
2022/03/21 09:09:35;;;;;;;10.40;3.15;;;;;;;10.61;40.99;101043.09;5022878;28;20155;-77
2022/03/21 09:12:01;;;;;;;10.25;2.80;;;;;;;10.69;40.80;101031.16;5037752;28;20116;-77
2022/03/21 09:14:27;;;;;;;9.75;3.08;;;;;;;10.76;40.65;101028.66;5021475;28;20484;-75
2022/03/21 09:16:53;;;;;;;;;;;;;;;10.80;40.93;101033.03;5021823;28;20419;-77
2022/03/21 09:19:22;;;;;;;11.05;2.67;;;;;;;10.77;41.05;101012.25;5054394;28;19917;-76
2022/03/21 09:21:49;;;;;;;11.77;3.58;;;;;;;10.94;40.87;101026.34;5038373;28;20036;-77
2022/03/21 09:24:14;;;;;;;9.77;2.60;;;;;;;10.80;40.80;100989.78;5021027;28;20081;-77
2022/03/21 09:26:40;;;;;;;10.20;2.35;;;;;;;11.18;40.34;101021.56;5037596;28;20115;-77
2022/03/21 09:29:06;;;;;;;;;;;;;;;11.48;40.04;101022.84;5054785;28;20049;-76
2022/03/21 09:31:32;;;;;;;5.78;2.10;;;;;;;11.63;39.04;100999.66;5037240;28;20429;-76
2022/03/21 09:33:59;;;;;;;11.32;2.85;;;;;;;11.87;38.27;101003.47;5020956;28;20040;-78
2022/03/21 09:36:25;;;;;;;11.32;2.35;;;;;;;12.27;37.64;100996.97;5001991;28;20025;-77
2022/03/21 09:38:51;;;;;;;10.02;3.40;;;;;;;12.54;37.56;100985.97;5045484;28;20041;-76
2022/03/21 09:41:22;;;;;;;7.65;2.70;;;;;;;13.55;36.15;100993.66;5017368;28;20037;-76
2022/03/21 09:43:50;;;;;;;7.97;2.67;;;;;;;14.74;33.94;101000.06;5015966;28;20511;-79
2022/03/21 09:46:16;;;;;;;11.80;3.13;;;;;;;15.91;32.01;100990.28;5049079;28;20033;-76
2022/03/21 09:48:41;;;;;;;;;;;;;;;17.04;31.92;100996.47;5017385;28;20558;-77
2022/03/21 09:51:07;;;;;;;10.32;3.10;;;;;;;17.92;28.45;100962.31;5028500;28;19956;-76
2022/03/21 09:53:33;;;;;;;;;;;;;;;18.99;29.03;100986.94;5037322;28;20032;-76
2022/03/21 09:55:59;;;;;;;8.35;2.55;;;;;;;19.68;25.82;100962.81;5054089;28;19920;-78
2022/03/21 09:58:27;;;;;;;9.18;2.88;;;;;;;20.42;25.05;100958.53;5044906;28;20052;-77
2022/03/21 10:00:53;;;;;;;10.65;2.83;;;;;;;21.02;24.04;100957.94;5053350;28;20484;-78
2022/03/21 10:03:18;;;;;;;13.43;2.88;;;;;;;21.81;22.79;100971.56;5033318;28;20070;-77
2022/03/21 10:05:46;;;;;;;8.90;2.67;;;;;;;22.45;21.72;100967.84;5033457;28;20052;-78
2022/03/21 10:08:19;;;;;;;10.43;2.97;;;;;;;22.96;21.52;100960.00;5054919;28;20041;-75
2022/03/21 10:11:01;;;;;;;13.25;2.55;;;;;;;23.05;21.18;100930.59;5054022;28;20044;-76
2022/03/21 10:13:31;;;;;;;7.07;2.50;;;;;;;23.51;20.45;100938.63;5054781;28;20052;-80
2022/03/21 10:16:13;;;;;;;10.05;2.60;;;;;;;24.01;20.31;100968.53;5037641;28;20575;-77
2022/03/21 10:18:58;;;;;;;7.65;2.30;;;;;;;24.35;19.56;100970.69;5053927;28;20051;-78
2022/03/21 10:21:26;;;;;;;8.23;2.65;;;;;;;24.67;18.89;100957.94;5017312;28;20037;-77
2022/03/21 10:24:08;;;;;;;8.82;3.10;;;;;;;24.42;18.87;100920.06;5044407;28;20055;-77
2022/03/21 10:26:36;;;;;;;13.05;2.95;;;;;;;24.47;18.58;100912.81;5022376;28;20055;-80
2022/03/21 10:29:05;;;;;;;10.60;2.90;;;;;;;24.91;18.55;100956.03;5020521;28;20060;-80
2022/03/21 10:31:35;;;;;;;9.40;2.90;;;;;;;24.98;18.46;100940.72;5037089;28;20044;-79
2022/03/21 10:34:30;;;;;;;11.80;2.80;;;;;;;25.10;17.53;100937.53;5037135;28;20147;-78
2022/03/21 10:37:05;;;;;;;7.40;2.40;;;;;;;25.13;17.96;100958.66;5048462;28;20056;-78
2022/03/21 10:39:35;;;;;;;9.30;3.97;;;;;;;24.95;18.04;100908.97;5053284;28;20043;-78
2022/03/21 10:42:05;;;;;;;8.50;2.80;;;;;;;25.52;17.86;100953.34;5054390;28;20339;-77
2022/03/21 10:44:32;;;;;;;8.38;2.80;;;;;;;25.75;16.90;100946.09;5053286;28;20055;-78
2022/03/21 10:47:00;;;;;;;13.15;2.80;;;;;;;25.61;16.92;100930.78;5036007;28;20037;-78
2022/03/21 10:49:33;;;;;;;6.90;2.13;;;;;;;25.55;17.75;100916.00;5028076;28;20037;-76
2022/03/21 10:51:59;;;;;;;9.60;2.95;;;;;;;25.77;16.56;100937.16;5033735;28;20099;-77
2022/03/21 10:54:39;;;;;;;7.63;2.40;;;;;;;25.57;17.73;100894.69;5045309;28;20029;-79
2022/03/21 10:57:05;;;;;;;7.80;2.42;;;;;;;25.46;16.13;100896.97;5038673;28;20072;-79
2022/03/21 10:59:32;;;;;;;8.93;2.88;;;;;;;25.61;16.21;100928.13;5055222;28;20029;-78
2022/03/21 11:02:11;;;;;;;9.93;3.08;;;;;;;25.64;16.89;100925.34;5034678;28;20152;-78
2022/03/21 11:04:37;;;;;;;11.20;3.42;;;;;;;25.80;16.35;100926.41;5023996;28;20060;-77
2022/03/21 11:07:05;;;;;;;7.72;2.65;;;;;;;25.82;16.21;100916.53;5053209;28;20064;-78
2022/03/21 11:09:32;;;;;;;11.45;3.10;;;;;;;25.76;16.22;100923.94;5038096;28;20434;-79
2022/03/21 11:11:59;;;;;;;11.50;2.42;;;;;;;25.76;15.75;100924.81;5038029;28;20041;-77
2022/03/21 11:14:25;;;;;;;9.30;3.05;;;;;;;25.43;16.20;100931.63;5055110;28;20537;-77
2022/03/21 11:16:51;;;;;;;8.10;2.67;;;;;;;25.52;16.20;100894.00;5056512;28;20028;-78
2022/03/21 11:19:17;;;;;;;9.90;3.28;;;;;;;25.74;15.59;100920.44;5037071;28;20400;-79
2022/03/21 11:21:43;;;;;;;11.68;3.35;;;;;;;25.67;15.40;100924.34;5021948;28;20105;-78
2022/03/21 11:24:09;;;;;;;9.38;2.75;;;;;;;26.01;15.77;100923.63;5036803;28;20071;-78
2022/03/21 11:26:41;;;;;;;9.07;2.40;;;;;;;26.34;15.57;100919.34;5036546;28;20025;-77
2022/03/21 11:29:17;;;;;;;9.27;2.53;;;;;;;26.19;15.77;100890.81;5035965;28;20052;-79
2022/03/21 11:31:57;;;;;;;5.97;2.17;;;;;;;26.63;15.65;100892.22;5038693;28;20037;-80
2022/03/21 11:34:23;;;;;;;11.18;2.40;;;;;;;26.99;14.89;100905.44;5039265;28;20103;-77
2022/03/21 11:36:56;;;;;;;7.68;2.40;;;;;;;27.16;14.56;100910.72;5049689;28;20392;-77
2022/03/21 11:39:22;;;;;;;11.77;2.97;;;;;;;27.12;14.33;100898.53;5036472;28;20045;-81
2022/03/21 11:42:15;;;;;;;17.13;3.08;;;;;;;27.21;15.48;100903.34;5033728;28;20041;-78
2022/03/21 11:44:42;;;;;;;8.52;2.63;;;;;;;26.93;14.20;100879.97;5031677;28;20055;-80